Avenel, New Jersey
Current Conditions -  °F | °C
As of 7:55 AM on Friday 19 Dec 2014 (Local Time) from KLDJ Reporting Station
Overcast Overcast  
Wind Chill: 35°   Ceiling: 3700
Heat Index: 41°   Visibility: 10mi
Dew Point: 27°   Wind: 10mph
Humidity: 57%   Direction: 320°NW
Pressure: 30.04"   Gusts: NA
Location:  40.58°N, 74.28°W
Report Text: KLDJ 191255Z AUTO 32009KT 10SM OVC037 05/M03 A3004 RMK AO2 T00501030
Loading
Personal Weather Stations






























Interactive Weather Map New forecast layout! Learn more

10-Day Weather Forecast

Advertisements
Track Severe Weather on mobile